createdAt,value
2022-10-16T00:02:39.090Z,13.80
2022-10-16T00:05:25.404Z,13.80
2022-10-16T00:08:14.814Z,13.90
2022-10-16T00:11:09.365Z,13.90
2022-10-16T00:14:01.344Z,13.90
2022-10-16T00:16:47.848Z,13.90
2022-10-16T00:19:33.745Z,14.00
2022-10-16T00:22:19.830Z,13.90
2022-10-16T00:25:10.070Z,14.00
2022-10-16T00:27:56.203Z,14.00
2022-10-16T00:30:42.078Z,14.10
2022-10-16T00:33:28.105Z,14.20
2022-10-16T00:36:17.882Z,14.20
2022-10-16T00:39:04.318Z,14.30
2022-10-16T00:41:50.537Z,14.40
2022-10-16T00:44:53.589Z,14.40
2022-10-16T00:47:45.963Z,14.40
2022-10-16T00:50:35.232Z,14.50
2022-10-16T00:53:22.557Z,14.40
2022-10-16T00:56:09.255Z,14.40
2022-10-16T00:58:55.560Z,14.20
2022-10-16T01:01:41.741Z,14.10
2022-10-16T01:04:37.839Z,14.00
2022-10-16T01:07:44.405Z,14.00
2022-10-16T01:10:50.050Z,14.10
2022-10-16T01:13:48.915Z,14.20
2022-10-16T01:16:47.340Z,14.20
2022-10-16T01:19:57.761Z,14.20
2022-10-16T01:22:57.109Z,14.10
2022-10-16T01:26:05.374Z,14.10
2022-10-16T01:29:09.988Z,14.00
2022-10-16T01:32:02.862Z,14.00
2022-10-16T01:34:53.651Z,14.00
2022-10-16T01:37:54.556Z,13.90
2022-10-16T01:40:47.052Z,13.70
2022-10-16T01:43:39.501Z,13.60
2022-10-16T01:46:26.865Z,13.60
2022-10-16T01:49:14.471Z,13.60
2022-10-16T01:52:03.809Z,13.70
2022-10-16T01:54:53.526Z,13.70
2022-10-16T01:57:45.252Z,13.80
2022-10-16T02:00:32.326Z,13.90
2022-10-16T02:03:20.504Z,14.00
2022-10-16T02:06:06.479Z,14.10
2022-10-16T02:08:52.800Z,14.10
2022-10-16T02:11:38.770Z,14.20
2022-10-16T02:14:25.822Z,14.20
2022-10-16T02:17:16.527Z,14.20
2022-10-16T02:20:04.274Z,14.20
2022-10-16T02:22:53.009Z,14.20
2022-10-16T02:25:43.335Z,14.20
2022-10-16T02:28:46.390Z,14.10
2022-10-16T02:31:36.861Z,14.10
2022-10-16T02:34:24.995Z,14.00
2022-10-16T02:37:11.498Z,14.00
2022-10-16T02:39:59.254Z,13.90
2022-10-16T02:42:45.564Z,13.80
2022-10-16T02:45:31.827Z,13.80
2022-10-16T02:48:17.748Z,13.70
2022-10-16T02:51:03.960Z,13.70
2022-10-16T02:53:50.315Z,13.70
2022-10-16T02:56:36.266Z,13.60
2022-10-16T02:59:22.365Z,13.60
2022-10-16T03:02:08.401Z,13.60
2022-10-16T03:04:54.305Z,13.70
2022-10-16T03:07:40.908Z,13.70
2022-10-16T03:10:26.925Z,13.70
2022-10-16T03:13:13.178Z,13.70
2022-10-16T03:15:59.132Z,13.50
2022-10-16T03:18:48.562Z,13.40
2022-10-16T03:21:34.559Z,13.40
2022-10-16T03:24:20.545Z,13.40
2022-10-16T03:27:06.800Z,13.50
2022-10-16T03:29:52.740Z,13.50
2022-10-16T03:32:38.796Z,13.50
2022-10-16T03:35:25.752Z,13.60
2022-10-16T03:38:11.847Z,13.60
2022-10-16T03:40:57.867Z,13.60
2022-10-16T03:43:43.950Z,13.60
2022-10-16T03:46:30.504Z,13.60
2022-10-16T03:49:16.352Z,13.50
2022-10-16T03:52:02.277Z,13.60
2022-10-16T03:54:48.300Z,13.60
2022-10-16T03:57:34.311Z,13.60
2022-10-16T04:00:20.311Z,13.60
2022-10-16T04:03:06.394Z,13.70
2022-10-16T04:05:52.362Z,13.70
2022-10-16T04:08:40.103Z,13.70
2022-10-16T04:11:26.433Z,13.70
2022-10-16T04:14:12.460Z,13.70
2022-10-16T04:16:58.604Z,13.70
2022-10-16T04:19:44.662Z,13.80
2022-10-16T04:22:30.674Z,13.80
2022-10-16T04:25:16.742Z,13.80
2022-10-16T04:28:02.841Z,13.80
2022-10-16T04:30:49.081Z,13.80
2022-10-16T04:33:35.312Z,13.80
2022-10-16T04:36:24.257Z,13.90
2022-10-16T04:39:12.904Z,13.90
2022-10-16T04:41:58.983Z,13.90
2022-10-16T04:44:45.051Z,13.90
2022-10-16T04:47:30.957Z,13.80
2022-10-16T04:50:17.280Z,13.80
2022-10-16T04:53:21.075Z,13.90
2022-10-16T04:56:06.982Z,13.90
2022-10-16T04:58:52.887Z,13.90
2022-10-16T05:01:38.762Z,13.90
2022-10-16T05:04:24.850Z,13.90
2022-10-16T05:07:11.019Z,13.90
2022-10-16T05:09:57.176Z,13.90
2022-10-16T05:12:43.369Z,13.90
2022-10-16T05:15:29.821Z,13.90
2022-10-16T05:18:16.362Z,13.80
2022-10-16T05:21:02.372Z,13.80
2022-10-16T05:23:48.478Z,13.90
2022-10-16T05:26:34.297Z,13.90
2022-10-16T05:29:20.596Z,14.00
2022-10-16T05:32:06.774Z,14.00
2022-10-16T05:34:53.009Z,14.00
2022-10-16T05:37:39.324Z,14.00
2022-10-16T05:40:25.229Z,14.00
2022-10-16T05:43:11.221Z,14.10
2022-10-16T05:46:03.737Z,14.10
2022-10-16T05:48:52.536Z,14.00
2022-10-16T05:51:38.518Z,14.00
2022-10-16T05:54:24.575Z,14.00
2022-10-16T05:57:10.722Z,14.00
2022-10-16T05:59:57.202Z,13.90
2022-10-16T06:02:43.396Z,13.90
2022-10-16T06:05:29.387Z,13.80
2022-10-16T06:08:15.383Z,13.70
2022-10-16T06:11:03.152Z,13.60
2022-10-16T06:13:53.872Z,13.30
2022-10-16T06:16:40.093Z,13.20
2022-10-16T06:19:26.356Z,13.00
2022-10-16T06:22:12.285Z,13.10
2022-10-16T06:24:58.190Z,13.20
2022-10-16T06:27:44.300Z,13.30
2022-10-16T06:30:30.177Z,13.40
2022-10-16T06:33:16.133Z,13.60
2022-10-16T06:36:04.526Z,13.60
2022-10-16T06:38:50.709Z,13.60
2022-10-16T06:41:37.004Z,13.60
2022-10-16T06:44:34.941Z,13.70
2022-10-16T06:47:20.972Z,13.60
2022-10-16T06:50:10.101Z,13.60
2022-10-16T06:52:56.298Z,13.60
2022-10-16T06:55:42.156Z,13.60
2022-10-16T06:58:28.040Z,13.60
2022-10-16T07:01:16.093Z,13.60
2022-10-16T07:04:03.164Z,13.60
2022-10-16T07:06:49.057Z,13.60
2022-10-16T07:09:34.939Z,13.60
2022-10-16T07:12:20.874Z,13.40
2022-10-16T07:15:07.317Z,13.40
2022-10-16T07:17:53.320Z,13.50
2022-10-16T07:20:39.776Z,13.70
2022-10-16T07:23:25.912Z,13.90
2022-10-16T07:26:12.415Z,14.00
2022-10-16T07:28:58.620Z,14.10
2022-10-16T07:31:45.407Z,14.40
2022-10-16T07:34:31.573Z,14.70
2022-10-16T07:37:17.370Z,14.80
2022-10-16T07:40:03.477Z,15.10
2022-10-16T07:42:49.705Z,15.50
2022-10-16T07:45:35.705Z,15.60
2022-10-16T07:48:22.898Z,15.70
2022-10-16T07:51:08.939Z,15.80
2022-10-16T07:53:55.212Z,16.10
2022-10-16T07:56:43.850Z,16.30
2022-10-16T07:59:29.918Z,16.50
2022-10-16T08:02:15.840Z,16.70
2022-10-16T08:05:01.712Z,16.70
2022-10-16T08:07:51.263Z,16.80
2022-10-16T08:10:37.478Z,16.80
2022-10-16T08:13:23.817Z,16.90
2022-10-16T08:16:10.807Z,17.00
2022-10-16T08:18:56.733Z,17.00
2022-10-16T08:21:42.705Z,17.20
2022-10-16T08:24:28.569Z,17.30
2022-10-16T08:27:14.596Z,17.60
2022-10-16T08:30:00.826Z,17.90
2022-10-16T08:32:46.815Z,18.10
2022-10-16T08:35:32.707Z,18.40
2022-10-16T08:38:18.861Z,18.60
2022-10-16T08:41:14.373Z,18.80
2022-10-16T08:44:37.653Z,19.10
2022-10-16T08:47:27.603Z,19.30
2022-10-16T08:50:19.740Z,19.60
2022-10-16T08:53:07.787Z,20.00
2022-10-16T08:55:54.905Z,20.30
2022-10-16T08:58:41.290Z,20.70
2022-10-16T09:01:41.540Z,21.00
2022-10-16T09:04:59.796Z,21.20
2022-10-16T09:08:09.263Z,21.40
2022-10-16T09:11:15.262Z,21.70
2022-10-16T09:14:45.420Z,21.80
2022-10-16T09:17:36.496Z,21.60
2022-10-16T09:20:50.305Z,21.60
2022-10-16T09:23:38.110Z,21.60
2022-10-16T09:29:17.045Z,21.80
2022-10-16T09:32:15.363Z,21.80
2022-10-16T09:35:02.176Z,21.90
2022-10-16T09:37:51.851Z,21.90
2022-10-16T09:40:40.403Z,22.10
2022-10-16T09:43:42.980Z,22.40
2022-10-16T09:46:32.956Z,22.60
2022-10-16T09:49:27.984Z,22.90
2022-10-16T09:52:16.240Z,23.20
2022-10-16T09:55:14.034Z,23.30
2022-10-16T09:58:00.204Z,23.40
2022-10-16T10:00:54.909Z,23.60
2022-10-16T10:03:43.138Z,23.60
2022-10-16T10:06:38.823Z,23.60
2022-10-16T10:09:25.169Z,23.70
2022-10-16T10:12:38.038Z,23.70
2022-10-16T10:15:25.460Z,23.70
2022-10-16T10:18:20.959Z,23.80
2022-10-16T10:21:14.673Z,23.80
2022-10-16T10:24:00.771Z,23.80
2022-10-16T10:26:54.642Z,23.80
2022-10-16T10:30:12.116Z,24.00
2022-10-16T10:33:25.875Z,24.20
2022-10-16T10:36:29.461Z,24.40
2022-10-16T10:39:25.263Z,24.60
2022-10-16T10:43:00.302Z,24.50
2022-10-16T10:45:48.965Z,24.40
2022-10-16T10:48:55.513Z,24.40
2022-10-16T10:52:23.657Z,24.50
2022-10-16T10:55:28.598Z,24.50
2022-10-16T10:58:43.093Z,24.60
2022-10-16T11:01:37.160Z,24.80
2022-10-16T11:04:32.056Z,24.90
2022-10-16T11:07:28.745Z,24.90
2022-10-16T11:10:30.620Z,25.00
2022-10-16T11:13:28.853Z,25.10
2022-10-16T11:16:27.039Z,25.10
2022-10-16T11:19:15.754Z,25.30
2022-10-16T11:22:14.920Z,25.50
2022-10-16T11:25:22.289Z,25.50
2022-10-16T11:28:31.004Z,25.50
2022-10-16T11:31:37.029Z,25.90
2022-10-16T11:34:37.685Z,26.10
2022-10-16T11:37:33.281Z,26.20
2022-10-16T11:40:25.489Z,26.40
2022-10-16T11:43:35.486Z,26.30
2022-10-16T11:46:24.916Z,26.00
2022-10-16T11:49:16.340Z,25.60
2022-10-16T11:52:16.152Z,25.50
2022-10-16T11:55:26.676Z,25.50
2022-10-16T11:58:35.295Z,25.60
2022-10-16T12:01:39.754Z,26.10
2022-10-16T12:04:35.551Z,26.20
2022-10-16T12:07:28.625Z,26.20
2022-10-16T12:10:30.062Z,26.30
2022-10-16T12:13:32.701Z,26.50
2022-10-16T12:16:18.819Z,26.70
2022-10-16T12:19:16.331Z,26.90
2022-10-16T12:22:04.537Z,27.10
2022-10-16T12:24:53.596Z,27.20
2022-10-16T12:27:39.631Z,27.50
2022-10-16T12:30:31.063Z,27.70
2022-10-16T12:33:26.594Z,27.90
2022-10-16T12:36:30.333Z,27.90
2022-10-16T12:39:25.676Z,28.30
2022-10-16T12:42:28.828Z,28.40
2022-10-16T12:45:33.082Z,28.50
2022-10-16T12:48:29.118Z,28.30
2022-10-16T12:51:26.001Z,28.40
2022-10-16T12:54:14.887Z,28.70
2022-10-16T12:57:35.492Z,28.80
2022-10-16T13:00:43.463Z,28.70
2022-10-16T13:03:32.283Z,28.30
2022-10-16T13:06:57.976Z,28.10
2022-10-16T13:10:08.320Z,28.00
2022-10-16T13:13:22.506Z,28.00
2022-10-16T13:16:25.708Z,27.60
2022-10-16T13:19:26.988Z,27.30
2022-10-16T13:22:42.229Z,27.20
2022-10-16T13:26:00.486Z,27.50
2022-10-16T13:28:47.143Z,27.90
2022-10-16T13:31:34.371Z,28.20
2022-10-16T13:34:23.685Z,28.50
2022-10-16T13:37:19.489Z,28.80
2022-10-16T13:40:22.857Z,28.90
2022-10-16T13:43:10.137Z,29.20
2022-10-16T13:46:02.973Z,29.30
2022-10-16T13:49:00.580Z,29.40
2022-10-16T13:52:00.631Z,29.50
2022-10-16T13:54:47.415Z,29.60
2022-10-16T13:57:33.550Z,29.90
2022-10-16T14:00:19.629Z,30.10
2022-10-16T14:03:07.766Z,30.60
2022-10-16T14:05:59.989Z,31.20
2022-10-16T14:08:50.507Z,32.00
2022-10-16T14:11:52.531Z,32.50
2022-10-16T14:14:47.488Z,32.80
2022-10-16T14:17:36.655Z,32.60
2022-10-16T14:20:27.969Z,32.50
2022-10-16T14:23:20.439Z,31.80
2022-10-16T14:26:18.628Z,30.90
2022-10-16T14:29:13.475Z,30.10
2022-10-16T14:32:05.148Z,29.30
2022-10-16T14:34:55.134Z,28.70
2022-10-16T14:37:41.025Z,28.10
2022-10-16T14:40:36.517Z,27.60
2022-10-16T14:43:29.930Z,27.10
2022-10-16T14:49:13.319Z,26.40
2022-10-16T14:51:59.234Z,26.10
2022-10-16T14:54:48.844Z,25.90
2022-10-16T14:57:38.237Z,25.70
2022-10-16T15:00:25.186Z,25.60
2022-10-16T15:03:11.442Z,25.50
2022-10-16T15:05:57.738Z,25.30
2022-10-16T15:08:44.435Z,25.10
2022-10-16T15:11:33.435Z,24.90
2022-10-16T15:14:19.661Z,24.80
2022-10-16T15:17:05.902Z,24.60
2022-10-16T15:19:52.451Z,24.50
2022-10-16T15:22:38.506Z,24.40
2022-10-16T15:25:58.457Z,24.20
2022-10-16T15:28:44.820Z,24.10
2022-10-16T15:31:30.781Z,23.90
2022-10-16T15:34:17.214Z,23.80
2022-10-16T15:37:06.164Z,23.80
2022-10-16T15:39:52.155Z,23.70
2022-10-16T15:42:38.167Z,23.70
2022-10-16T15:45:24.122Z,23.70
2022-10-16T15:48:14.567Z,23.50
2022-10-16T15:51:10.259Z,23.50
2022-10-16T15:54:00.053Z,23.30
2022-10-16T15:56:46.588Z,23.20
2022-10-16T15:59:32.618Z,23.00
2022-10-16T16:02:18.509Z,22.90
2022-10-16T16:05:04.970Z,22.80
2022-10-16T16:07:51.253Z,22.70
2022-10-16T16:10:37.646Z,22.60
2022-10-16T16:13:23.846Z,22.50
2022-10-16T16:16:17.785Z,22.30
2022-10-16T16:19:07.760Z,22.20
2022-10-16T16:21:57.448Z,22.10
2022-10-16T16:24:43.689Z,22.00
2022-10-16T16:27:31.133Z,21.80
2022-10-16T16:30:21.081Z,21.60
2022-10-16T16:33:08.677Z,21.60
2022-10-16T16:36:02.846Z,21.40
2022-10-16T16:38:48.762Z,21.30
2022-10-16T16:41:34.872Z,21.10
2022-10-16T16:44:21.237Z,21.00
2022-10-16T16:47:07.580Z,20.80
2022-10-16T16:49:53.501Z,20.70
2022-10-16T16:52:39.349Z,20.60
2022-10-16T16:55:25.206Z,20.50
2022-10-16T16:58:11.263Z,20.40
2022-10-16T17:01:19.025Z,20.30
2022-10-16T17:04:03.859Z,20.20
2022-10-16T17:06:50.121Z,20.00
2022-10-16T17:09:36.307Z,19.90
2022-10-16T17:12:22.214Z,19.80
2022-10-16T17:15:08.747Z,19.60
2022-10-16T17:17:55.031Z,19.60
2022-10-16T17:20:41.373Z,19.50
2022-10-16T17:23:28.233Z,19.40
2022-10-16T17:26:17.020Z,19.30
2022-10-16T17:29:04.348Z,19.30
2022-10-16T17:31:50.336Z,19.30
2022-10-16T17:34:37.530Z,19.20
2022-10-16T17:37:24.044Z,19.20
2022-10-16T17:40:11.167Z,19.20
2022-10-16T17:42:57.697Z,19.20
2022-10-16T17:45:44.034Z,19.10
2022-10-16T17:48:29.961Z,19.00
2022-10-16T17:51:19.385Z,18.90
2022-10-16T17:54:06.923Z,18.70
2022-10-16T17:56:52.847Z,18.70
2022-10-16T17:59:38.880Z,18.70
2022-10-16T18:02:25.465Z,18.70
2022-10-16T18:05:12.002Z,18.60
2022-10-16T18:07:58.419Z,18.60
2022-10-16T18:10:49.805Z,18.60
2022-10-16T18:13:36.317Z,18.60
2022-10-16T18:16:22.662Z,18.60
2022-10-16T18:19:11.537Z,18.60
2022-10-16T18:21:57.936Z,18.50
2022-10-16T18:24:43.954Z,18.40
2022-10-16T18:27:30.551Z,18.40
2022-10-16T18:30:17.033Z,18.30
2022-10-16T18:33:03.006Z,18.30
2022-10-16T18:35:49.086Z,18.30
2022-10-16T18:38:36.385Z,18.20
2022-10-16T18:41:22.989Z,18.20
2022-10-16T18:44:13.317Z,18.20
2022-10-16T18:46:59.680Z,18.10
2022-10-16T18:49:48.267Z,18.10
2022-10-16T18:52:34.460Z,18.10
2022-10-16T18:55:21.392Z,18.00
2022-10-16T18:58:07.617Z,17.90
2022-10-16T19:00:53.782Z,17.90
2022-10-16T19:03:41.486Z,17.80
2022-10-16T19:06:28.928Z,17.80
2022-10-16T19:09:16.851Z,17.80
2022-10-16T19:12:03.832Z,17.70
2022-10-16T19:14:49.962Z,17.70
2022-10-16T19:17:37.916Z,17.70
2022-10-16T19:20:24.014Z,17.70
2022-10-16T19:23:10.112Z,17.70
2022-10-16T19:25:56.399Z,17.70
2022-10-16T19:28:43.586Z,17.60
2022-10-16T19:31:31.201Z,17.50
2022-10-16T19:34:17.378Z,17.50
2022-10-16T19:37:03.464Z,17.40
2022-10-16T19:39:49.658Z,17.20
2022-10-16T19:42:36.291Z,17.20
2022-10-16T19:45:22.819Z,17.10
2022-10-16T19:48:08.711Z,17.10
2022-10-16T19:50:54.968Z,17.10
2022-10-16T19:53:41.613Z,17.00
2022-10-16T19:56:30.052Z,16.90
2022-10-16T19:59:19.174Z,16.70
2022-10-16T20:02:05.525Z,16.50
2022-10-16T20:04:51.830Z,16.40
2022-10-16T20:07:37.968Z,16.40
2022-10-16T20:10:25.702Z,16.50
2022-10-16T20:13:12.888Z,16.60
2022-10-16T20:15:59.413Z,16.60
2022-10-16T20:18:46.760Z,16.70
2022-10-16T20:21:35.684Z,16.70
2022-10-16T20:24:21.880Z,16.80
2022-10-16T20:27:08.169Z,16.70
2022-10-16T20:29:54.097Z,16.70
2022-10-16T20:32:41.821Z,16.70
2022-10-16T20:35:28.460Z,16.70
2022-10-16T20:38:15.466Z,16.70
2022-10-16T20:41:04.367Z,16.70
2022-10-16T20:43:52.155Z,16.70
2022-10-16T20:46:38.078Z,16.50
2022-10-16T20:49:39.412Z,16.50
2022-10-16T20:52:26.126Z,16.50
2022-10-16T20:55:11.973Z,16.40
2022-10-16T20:57:58.037Z,16.40
2022-10-16T21:00:44.591Z,16.40
2022-10-16T21:03:31.281Z,16.30
2022-10-16T21:06:17.295Z,16.20
2022-10-16T21:09:04.547Z,16.30
2022-10-16T21:11:51.041Z,16.30
2022-10-16T21:14:42.270Z,16.30
2022-10-16T21:17:33.038Z,16.30
2022-10-16T21:20:19.052Z,16.20
2022-10-16T21:23:04.965Z,16.20
2022-10-16T21:25:51.083Z,16.10
2022-10-16T21:28:37.040Z,16.10
2022-10-16T21:31:22.847Z,16.00
2022-10-16T21:34:09.045Z,16.00
2022-10-16T21:36:54.869Z,16.00
2022-10-16T21:39:41.103Z,15.90
2022-10-16T21:42:27.761Z,15.90
2022-10-16T21:45:14.393Z,15.80
2022-10-16T21:48:00.811Z,15.80
2022-10-16T21:50:50.113Z,15.80
2022-10-16T21:53:36.018Z,15.70
2022-10-16T21:56:23.121Z,15.60
2022-10-16T21:59:10.225Z,15.60
2022-10-16T22:01:56.633Z,15.50
2022-10-16T22:04:42.878Z,15.30
2022-10-16T22:07:30.382Z,15.30
2022-10-16T22:10:16.969Z,15.30
2022-10-16T22:13:02.812Z,15.20
2022-10-16T22:15:51.965Z,15.20
2022-10-16T22:18:39.516Z,15.20
2022-10-16T22:21:28.060Z,15.20
2022-10-16T22:24:15.744Z,15.20
2022-10-16T22:27:02.068Z,15.20
2022-10-16T22:29:52.121Z,15.20
2022-10-16T22:32:38.371Z,15.10
2022-10-16T22:35:24.170Z,15.10
2022-10-16T22:38:10.153Z,15.00
2022-10-16T22:40:56.025Z,14.90
2022-10-16T22:43:44.596Z,14.80
2022-10-16T22:46:31.609Z,14.80
2022-10-16T22:49:19.929Z,14.70
2022-10-16T22:52:05.715Z,14.70
2022-10-16T22:54:51.653Z,14.70
2022-10-16T22:57:37.558Z,14.70
2022-10-16T23:00:24.144Z,14.70
2022-10-16T23:03:10.512Z,14.60
2022-10-16T23:05:56.581Z,14.60
2022-10-16T23:08:42.698Z,14.60
2022-10-16T23:11:29.904Z,14.60
2022-10-16T23:14:21.124Z,14.60
2022-10-16T23:17:07.004Z,14.50
2022-10-16T23:19:52.949Z,14.50
2022-10-16T23:22:38.745Z,14.40
2022-10-16T23:25:24.874Z,14.50
2022-10-16T23:28:10.851Z,14.60
2022-10-16T23:30:57.262Z,14.70
2022-10-16T23:33:43.747Z,14.50
2022-10-16T23:36:29.820Z,14.50
2022-10-16T23:39:16.215Z,14.50
2022-10-16T23:42:02.572Z,14.50
2022-10-16T23:44:48.540Z,14.40
2022-10-16T23:47:34.490Z,14.30
2022-10-16T23:50:20.600Z,14.20
2022-10-16T23:53:10.035Z,14.20
2022-10-16T23:55:56.215Z,14.10
2022-10-16T23:58:42.454Z,14.00
